Terminal Aerodrome Forecast
Issued by NWS

Home | Current Version | Previous Version | Text Only | Print | Product List | Glossary On
Versions: 1 2 3 4 5 6 7 8 9 10 11 12 13 14 15 16
000
FTUS43 KFGF 010520
TAFDVL
TAF
KDVL 010520Z 0106/0206 27008KT P6SM VCSH SCT040 OVC060
     FM010800 32014KT P6SM VCSH OVC015
     FM011500 32016G24KT P6SM OVC007
     FM011800 32016G24KT P6SM OVC015
     FM020100 31011KT P6SM BKN050=

USA.gov is the U.S. government's official web portal to all federal, state and local government web resources and services.